Time;durP1;ratioP1;P1;durP2;ratioP2;P2;SDS_P1;SDS_P2;PMS_P1;PMS_P2;Temp;Humidity;BMP_temperature;BMP_pressure;BME280_temperature;BME280_humidity;BME280_pressure;Samples;Min_cycle;Max_cycle;Signal;HPM_P1;HPM_P2
2022/04/26 03:38:33;;;;;;;5.25;3.80;;;14.60;86.10;;;;;;5071694;28;20047;-59
2022/04/26 03:40:59;;;;;;;7.18;3.92;;;14.70;85.70;;;;;;5068997;28;20029;-60
2022/04/26 03:43:25;;;;;;;6.25;4.47;;;14.90;85.40;;;;;;5073517;28;20040;-59
2022/04/26 03:45:50;;;;;;;5.05;3.90;;;15.00;85.20;;;;;;5073734;28;20384;-59
2022/04/26 03:48:16;;;;;;;8.00;4.22;;;15.10;85.00;;;;;;5073629;28;20025;-60
2022/04/26 03:50:41;;;;;;;6.80;3.72;;;15.20;84.80;;;;;;5070252;28;20070;-59
2022/04/26 03:53:07;;;;;;;9.10;3.80;;;15.40;84.80;;;;;;5073556;28;20477;-59
2022/04/26 03:55:33;;;;;;;6.65;3.75;;;15.50;84.70;;;;;;5072253;28;20028;-59
2022/04/26 03:57:58;;;;;;;5.75;3.60;;;15.70;84.60;;;;;;5066237;28;20028;-59
2022/04/26 04:00:26;;;;;;;5.00;3.50;;;15.90;84.40;;;;;;5072366;28;20039;-59
2022/04/26 04:02:51;;;;;;;8.07;3.97;;;16.10;84.40;;;;;;5072033;28;20082;-59
2022/04/26 04:05:17;;;;;;;5.88;4.10;;;16.50;84.50;;;;;;5071675;28;20032;-59
2022/04/26 04:07:43;;;;;;;6.07;4.10;;;16.70;83.20;;;;;;5073186;28;20055;-59
2022/04/26 04:10:08;;;;;;;6.75;3.90;;;17.10;82.00;;;;;;5071848;28;20472;-59
2022/04/26 04:12:34;;;;;;;5.72;3.92;;;17.40;80.40;;;;;;5073243;28;20032;-59
2022/04/26 04:15:00;;;;;;;6.10;3.92;;;17.70;79.00;;;;;;5072041;28;20036;-59
2022/04/26 04:17:25;;;;;;;6.47;3.40;;;18.00;77.70;;;;;;5072384;28;20408;-59
2022/04/26 04:19:51;;;;;;;8.45;3.80;;;18.30;76.10;;;;;;5072462;28;20032;-59
2022/04/26 04:22:17;;;;;;;5.35;3.58;;;18.50;74.60;;;;;;5073126;28;20031;-59
2022/04/26 04:24:42;;;;;;;4.60;3.17;;;18.60;73.50;;;;;;5069138;28;20032;-59
2022/04/26 04:27:10;;;;;;;5.68;2.85;;;18.70;72.90;;;;;;5069857;28;20024;-59
2022/04/26 04:29:35;;;;;;;7.35;3.00;;;18.80;72.10;;;;;;5069947;28;20041;-59
2022/04/26 04:32:01;;;;;;;3.92;3.10;;;18.80;72.50;;;;;;5068771;28;20028;-60
2022/04/26 04:34:27;;;;;;;5.18;2.78;;;18.80;71.60;;;;;;5071926;28;20397;-60
2022/04/26 04:36:52;;;;;;;2.85;2.53;;;19.00;71.80;;;;;;5069340;28;20025;-58
2022/04/26 04:39:23;;;;;;;4.05;3.03;;;19.50;71.70;;;;;;5072313;28;20452;-57
2022/04/26 04:41:49;;;;;;;3.90;2.70;;;20.20;70.80;;;;;;5072595;28;20024;-58
2022/04/26 04:44:15;;;;;;;3.47;2.88;;;20.80;69.10;;;;;;5069879;28;20082;-58
2022/04/26 04:46:40;;;;;;;4.38;3.00;;;21.30;67.60;;;;;;5052297;28;20028;-57
2022/04/26 04:49:06;;;;;;;4.53;3.03;;;21.70;66.10;;;;;;5070685;28;20048;-58
2022/04/26 04:51:32;;;;;;;4.78;2.78;;;21.70;64.80;;;;;;5063808;28;20039;-58
2022/04/26 04:53:57;;;;;;;4.38;3.03;;;21.60;64.00;;;;;;5062762;28;20086;-58
2022/04/26 04:56:25;;;;;;;6.22;3.40;;;21.40;64.10;;;;;;5067667;28;20116;-59
2022/04/26 04:58:51;;;;;;;4.53;2.97;;;21.20;64.20;;;;;;5070124;28;20395;-59
2022/04/26 05:01:17;;;;;;;5.50;3.40;;;21.00;64.50;;;;;;5066024;28;20025;-59
2022/04/26 05:03:42;;;;;;;4.63;2.95;;;21.00;64.30;;;;;;5068048;28;20407;-59
2022/04/26 05:06:08;;;;;;;5.18;3.20;;;20.90;64.30;;;;;;5063149;28;20032;-59
2022/04/26 05:08:34;;;;;;;6.68;3.33;;;20.70;64.40;;;;;;5064226;28;20028;-58
2022/04/26 05:11:00;;;;;;;5.70;3.15;;;20.50;64.50;;;;;;5066692;28;20033;-59
2022/04/26 05:13:25;;;;;;;5.60;3.30;;;20.20;64.70;;;;;;5067932;28;20033;-59
2022/04/26 05:15:51;;;;;;;4.10;3.00;;;20.10;65.10;;;;;;5066750;28;20444;-59
2022/04/26 05:18:17;;;;;;;3.75;3.10;;;19.90;65.30;;;;;;5069686;28;20484;-59
2022/04/26 05:20:43;;;;;;;5.30;2.83;;;20.00;65.80;;;;;;5070875;28;20032;-59
2022/04/26 05:25:53;;;;;;;5.30;3.22;;;20.30;65.10;;;;;;5063188;28;20547;-57
2022/04/26 05:28:19;;;;;;;5.10;2.90;;;20.40;65.00;;;;;;5067291;28;20033;-59
2022/04/26 05:30:44;;;;;;;5.70;3.40;;;20.60;64.60;;;;;;5071530;28;20077;-59
2022/04/26 05:33:10;;;;;;;5.07;3.00;;;20.60;63.90;;;;;;5070237;28;20425;-58
2022/04/26 05:35:36;;;;;;;4.10;3.00;;;20.60;63.70;;;;;;5058686;28;20028;-59
2022/04/26 05:38:01;;;;;;;5.35;3.05;;;20.50;63.70;;;;;;5056177;28;20043;-59
2022/04/26 05:40:27;;;;;;;4.40;2.90;;;20.40;63.80;;;;;;5064226;28;20088;-59
2022/04/26 05:42:53;;;;;;;4.20;3.10;;;20.30;64.10;;;;;;5064919;28;20028;-59
2022/04/26 05:45:18;;;;;;;3.78;2.80;;;20.20;64.40;;;;;;5058336;28;20031;-60
2022/04/26 05:47:45;;;;;;;4.07;3.13;;;20.00;64.60;;;;;;5056831;28;20570;-59
2022/04/26 05:50:11;;;;;;;7.95;3.10;;;19.90;65.00;;;;;;5069883;28;20040;-59
2022/04/26 05:52:37;;;;;;;3.70;2.80;;;19.80;65.20;;;;;;5050515;28;20120;-59
2022/04/26 05:55:04;;;;;;;5.28;3.28;;;19.80;65.30;;;;;;5062615;28;20114;-60
2022/04/26 05:57:36;;;;;;;6.30;3.38;;;19.80;65.40;;;;;;5064478;28;20028;-60
2022/04/26 06:00:04;;;;;;;6.18;3.60;;;19.80;65.20;;;;;;5056344;28;20141;-59
2022/04/26 06:02:29;;;;;;;5.43;3.13;;;19.70;65.00;;;;;;5059380;28;20029;-59
2022/04/26 06:04:55;;;;;;;3.67;3.17;;;19.70;65.10;;;;;;5049695;28;20105;-59
2022/04/26 06:07:21;;;;;;;5.50;3.30;;;19.50;65.20;;;;;;5063440;28;20043;-60
2022/04/26 06:09:46;;;;;;;5.90;2.95;;;19.40;65.40;;;;;;5055927;28;20492;-60
2022/04/26 06:12:12;;;;;;;4.18;3.03;;;19.30;65.80;;;;;;5070796;28;20027;-60
2022/04/26 06:14:38;;;;;;;5.47;3.00;;;19.20;66.10;;;;;;5062790;28;20483;-59
2022/04/26 06:17:04;;;;;;;4.75;3.47;;;19.20;66.40;;;;;;5060563;28;20035;-60
2022/04/26 06:19:29;;;;;;;5.03;3.40;;;19.20;66.50;;;;;;5063723;28;20055;-59
2022/04/26 06:21:55;;;;;;;3.80;3.10;;;19.20;66.80;;;;;;5063421;28;20123;-60
2022/04/26 06:24:21;;;;;;;6.18;3.33;;;19.20;66.70;;;;;;5064676;28;20032;-60
2022/04/26 06:26:46;;;;;;;5.07;3.03;;;19.20;66.70;;;;;;5062361;28;20024;-60
2022/04/26 06:29:12;;;;;;;4.32;3.20;;;19.20;66.70;;;;;;5061734;28;20082;-59
2022/04/26 06:31:37;;;;;;;6.05;2.97;;;19.30;67.10;;;;;;5053700;28;20037;-61
2022/04/26 06:34:03;;;;;;;4.47;3.08;;;19.40;67.00;;;;;;5058853;28;20024;-59
2022/04/26 06:36:29;;;;;;;5.60;2.70;;;19.40;66.70;;;;;;5060497;28;20037;-59
2022/04/26 06:38:54;;;;;;;3.65;2.75;;;19.50;66.70;;;;;;5061839;28;20016;-59
2022/04/26 06:41:20;;;;;;;6.35;3.00;;;19.50;66.60;;;;;;5049105;28;20124;-60
2022/04/26 06:43:46;;;;;;;3.95;3.03;;;19.50;66.40;;;;;;5057508;28;20029;-59
2022/04/26 06:46:12;;;;;;;5.15;3.08;;;19.50;66.20;;;;;;5059419;28;20036;-59
2022/04/26 06:48:37;;;;;;;4.97;2.92;;;19.60;66.20;;;;;;5053171;28;20089;-60
2022/04/26 06:51:03;;;;;;;7.50;3.17;;;19.60;66.30;;;;;;5057812;28;20029;-59
2022/04/26 06:53:29;;;;;;;5.30;2.85;;;19.60;66.80;;;;;;5034553;28;20059;-60
2022/04/26 06:55:55;;;;;;;4.95;2.85;;;19.60;66.10;;;;;;5051439;28;21666;-60
2022/04/26 06:58:21;;;;;;;3.63;2.70;;;19.50;66.30;;;;;;5054435;28;20036;-60
2022/04/26 07:00:48;;;;;;;7.65;3.00;;;19.40;66.10;;;;;;5056227;28;20092;-60
2022/04/26 07:03:14;;;;;;;2.88;2.45;;;19.30;65.90;;;;;;5046580;28;20127;-60
2022/04/26 07:05:41;;;;;;;4.10;3.00;;;19.20;66.50;;;;;;5053756;28;20438;-60
2022/04/26 07:08:07;;;;;;;6.03;3.28;;;19.20;66.90;;;;;;5058764;28;20036;-60
2022/04/26 07:10:33;;;;;;;3.25;2.80;;;19.10;67.30;;;;;;5051869;28;20041;-60
2022/04/26 07:12:59;;;;;;;4.95;3.10;;;19.00;67.50;;;;;;5049997;28;20028;-60
2022/04/26 07:15:25;;;;;;;3.63;2.55;;;19.00;67.70;;;;;;5055436;28;20116;-59
2022/04/26 07:17:50;;;;;;;3.95;2.67;;;18.90;67.80;;;;;;5046414;28;20040;-60
2022/04/26 07:20:16;;;;;;;5.55;2.88;;;18.90;67.90;;;;;;5056987;28;20047;-59
2022/04/26 07:22:42;;;;;;;7.35;2.83;;;18.90;67.80;;;;;;5049489;28;20391;-60
2022/04/26 07:25:10;;;;;;;3.95;2.65;;;18.90;67.70;;;;;;5046307;28;20021;-59
2022/04/26 07:27:35;;;;;;;6.47;2.53;;;18.80;68.10;;;;;;5027824;28;20056;-60
2022/04/26 07:30:01;;;;;;;4.05;2.60;;;18.80;68.00;;;;;;5047869;28;20086;-59
2022/04/26 07:35:12;;;;;;;7.47;2.58;;;18.80;68.20;;;;;;5043829;28;20515;-58
2022/04/26 07:37:39;;;;;;;3.63;2.60;;;18.80;68.30;;;;;;5045736;28;20549;-60
2022/04/26 07:40:05;;;;;;;2.95;2.40;;;18.90;68.20;;;;;;5044529;28;20528;-59
2022/04/26 07:42:31;;;;;;;4.32;2.60;;;18.90;68.00;;;;;;5046192;28;20150;-60
2022/04/26 07:44:57;;;;;;;3.85;2.50;;;18.90;67.80;;;;;;5039344;28;20056;-59
2022/04/26 07:47:24;;;;;;;3.78;3.00;;;18.90;67.60;;;;;;5041135;28;20036;-60
2022/04/26 07:49:52;;;;;;;3.10;2.55;;;18.90;67.90;;;;;;5051769;28;20047;-59
2022/04/26 07:52:18;;;;;;;2.70;2.50;;;18.90;67.90;;;;;;5038904;28;20097;-59
2022/04/26 07:54:46;;;;;;;4.85;2.92;;;18.90;67.80;;;;;;5042442;28;20060;-60
2022/04/26 07:57:12;;;;;;;4.60;2.40;;;19.00;67.50;;;;;;5038456;28;20039;-60
2022/04/26 07:59:38;;;;;;;5.70;2.92;;;19.00;67.60;;;;;;5042747;28;20037;-60
2022/04/26 08:02:10;;;;;;;3.85;2.50;;;19.10;67.50;;;;;;5045845;28;20427;-60
2022/04/26 08:04:36;;;;;;;3.60;2.50;;;19.20;67.30;;;;;;5023721;28;20587;-60
2022/04/26 08:07:02;;;;;;;5.55;2.47;;;19.20;67.00;;;;;;5040907;28;20426;-60
2022/04/26 08:09:28;;;;;;;4.78;2.80;;;19.30;67.00;;;;;;5051650;28;20020;-60
2022/04/26 08:11:54;;;;;;;3.45;2.40;;;19.40;67.00;;;;;;5043166;28;20039;-60
2022/04/26 08:14:20;;;;;;;5.15;3.25;;;19.40;66.90;;;;;;5037476;28;20999;-59
2022/04/26 08:16:46;;;;;;;3.60;2.70;;;19.60;67.00;;;;;;5041239;28;20036;-59
2022/04/26 08:19:11;;;;;;;5.45;2.75;;;19.60;66.50;;;;;;5053265;28;20056;-59
2022/04/26 08:21:38;;;;;;;3.17;2.22;;;19.70;66.20;;;;;;5042490;28;20041;-59
2022/04/26 08:29:33;;;;;;;6.07;4.32;;;19.70;65.80;;;;;;5038512;28;20083;-59
2022/04/26 08:31:58;;;;;;;5.47;3.60;;;19.60;65.60;;;;;;5045968;28;20056;-60
2022/04/26 08:34:24;;;;;;;7.32;3.67;;;19.50;65.50;;;;;;5044901;28;20040;-60
2022/04/26 08:36:50;;;;;;;7.93;4.53;;;19.30;65.60;;;;;;5037275;28;20036;-59
2022/04/26 08:39:15;;;;;;;10.82;5.45;;;19.20;65.60;;;;;;5032345;28;20024;-60
2022/04/26 08:41:41;;;;;;;9.07;4.20;;;19.00;65.90;;;;;;5039734;28;20081;-59
2022/04/26 08:44:11;;;;;;;7.18;4.07;;;19.00;66.30;;;;;;5038925;28;20033;-59
2022/04/26 08:52:07;;;;;;;4.72;3.55;;;18.90;66.70;;;;;;5048399;28;20097;-60
2022/04/26 08:54:33;;;;;;;5.07;3.13;;;18.90;66.90;;;;;;5038134;28;20037;-60
2022/04/26 08:57:00;;;;;;;7.05;3.67;;;18.90;66.60;;;;;;5037651;28;20045;-60
2022/04/26 08:59:26;;;;;;;4.63;3.53;;;18.90;66.60;;;;;;5039839;28;20036;-59
2022/04/26 09:02:15;;;;;;;8.45;4.45;;;19.00;66.70;;;;;;5038085;28;20025;-60
2022/04/26 09:04:41;;;;;;;7.60;5.40;;;19.00;66.80;;;;;;5030482;28;20151;-59
2022/04/26 09:07:11;;;;;;;9.55;5.70;;;19.00;67.10;;;;;;5021938;28;20033;-59
2022/04/26 09:09:41;;;;;;;9.10;4.93;;;19.00;67.00;;;;;;5029704;28;20062;-60
2022/04/26 09:12:11;;;;;;;10.53;5.33;;;18.90;67.00;;;;;;5042823;28;20074;-60
2022/04/26 09:14:47;;;;;;;9.85;5.47;;;18.80;67.10;;;;;;5033213;28;20111;-60
2022/04/26 09:17:16;;;;;;;10.55;5.50;;;18.70;67.20;;;;;;5042671;28;20020;-60
2022/04/26 09:19:46;;;;;;;9.23;4.78;;;18.60;67.30;;;;;;5041960;28;20028;-60
2022/04/26 09:22:30;;;;;;;7.10;4.63;;;18.60;67.50;;;;;;5037620;28;20626;-59
2022/04/26 09:25:05;;;;;;;7.13;4.60;;;18.50;67.40;;;;;;5035422;28;20119;-60
2022/04/26 09:27:36;;;;;;;7.03;4.22;;;18.40;67.80;;;;;;5030428;28;20058;-60
2022/04/26 09:30:12;;;;;;;9.35;5.30;;;18.40;67.90;;;;;;5044150;28;20028;-59
2022/04/26 09:32:49;;;;;;;8.07;5.53;;;18.30;68.10;;;;;;5038158;28;20046;-59
2022/04/26 09:35:32;;;;;;;10.02;5.43;;;18.30;68.40;;;;;;5033577;28;20078;-60
2022/04/26 09:37:59;;;;;;;7.88;5.10;;;18.20;69.20;;;;;;5030225;28;20029;-59
2022/04/26 09:40:35;;;;;;;9.60;5.50;;;18.20;68.70;;;;;;5044619;28;20107;-59
2022/04/26 09:43:00;;;;;;;8.73;4.88;;;18.20;68.80;;;;;;5035796;28;20055;-59
2022/04/26 09:45:26;;;;;;;7.20;4.88;;;18.20;68.80;;;;;;5041033;28;20115;-59
2022/04/26 09:47:57;;;;;;;6.40;4.75;;;18.20;68.90;;;;;;5038253;28;20234;-59
2022/04/26 09:50:24;;;;;;;6.10;4.43;;;18.30;68.80;;;;;;5037704;28;20039;-59
2022/04/26 09:52:50;;;;;;;7.82;5.25;;;18.30;68.60;;;;;;5040854;28;20041;-58
2022/04/26 09:55:16;;;;;;;7.47;4.63;;;18.30;68.50;;;;;;5038749;28;20082;-59
2022/04/26 09:57:44;;;;;;;6.47;4.65;;;18.30;68.50;;;;;;5037110;28;20288;-59
2022/04/26 10:00:12;;;;;;;7.32;4.60;;;18.30;68.60;;;;;;5026835;28;20626;-60
2022/04/26 10:02:45;;;;;;;7.20;4.00;;;18.30;68.80;;;;;;5034819;28;20826;-61
2022/04/26 10:05:14;;;;;;;8.80;4.30;;;18.30;68.60;;;;;;5027157;28;20068;-60
2022/04/26 10:07:44;;;;;;;7.03;4.45;;;18.40;68.50;;;;;;5050598;28;20039;-60
2022/04/26 10:10:11;;;;;;;7.13;5.20;;;18.40;68.80;;;;;;5044386;28;20033;-61
2022/04/26 10:12:37;;;;;;;8.88;6.57;;;18.40;68.80;;;;;;5044483;28;20347;-61
2022/04/26 10:15:04;;;;;;;10.27;7.10;;;18.50;69.20;;;;;;5049046;28;21129;-59
2022/04/26 10:17:32;;;;;;;10.38;6.95;;;18.50;69.60;;;;;;5049267;28;20111;-60
2022/04/26 10:20:02;;;;;;;8.32;5.47;;;18.40;69.60;;;;;;5035013;28;20029;-61
2022/04/26 10:22:57;;;;;;;7.38;4.90;;;18.40;69.70;;;;;;5040154;28;20098;-59
2022/04/26 10:25:26;;;;;;;6.97;4.97;;;18.40;69.60;;;;;;5043292;28;20476;-61
2022/04/26 10:28:16;;;;;;;5.72;4.30;;;18.40;69.40;;;;;;5045103;28;20127;-61
2022/04/26 10:30:49;;;;;;;7.40;4.80;;;18.40;69.40;;;;;;5048324;28;20040;-61
2022/04/26 10:33:41;;;;;;;5.57;4.03;;;18.40;69.30;;;;;;5046696;28;20025;-61
2022/04/26 10:36:28;;;;;;;8.75;3.75;;;18.40;69.30;;;;;;5038553;28;20068;-61
2022/04/26 10:39:07;;;;;;;6.93;3.90;;;18.40;69.10;;;;;;5043752;28;20029;-61
2022/04/26 10:41:38;;;;;;;4.47;3.22;;;18.40;69.10;;;;;;5048728;28;20159;-61
2022/04/26 10:44:13;;;;;;;6.03;3.35;;;18.40;69.20;;;;;;5040528;28;20027;-60
2022/04/26 10:46:50;;;;;;;6.05;3.78;;;18.40;69.00;;;;;;5047381;28;20043;-61
2022/04/26 10:49:19;;;;;;;6.18;3.40;;;18.50;69.10;;;;;;5044429;28;20033;-61
2022/04/26 10:51:44;;;;;;;5.43;3.40;;;18.50;69.20;;;;;;5044654;28;20066;-61
2022/04/26 10:54:10;;;;;;;5.90;3.17;;;18.50;69.10;;;;;;5040331;28;23553;-61
2022/04/26 10:56:36;;;;;;;5.93;3.38;;;18.50;69.00;;;;;;5035021;28;20374;-57
2022/04/26 10:59:10;;;;;;;3.55;2.78;;;18.50;68.90;;;;;;5033453;28;20035;-58
2022/04/26 11:01:36;;;;;;;5.72;2.92;;;18.50;68.80;;;;;;5050724;28;20443;-59
2022/04/26 11:04:02;;;;;;;4.60;2.90;;;18.50;69.00;;;;;;5043664;28;20260;-59
2022/04/26 11:06:37;;;;;;;3.30;2.75;;;18.50;68.60;;;;;;5041982;28;20729;-60
2022/04/26 11:09:09;;;;;;;5.75;2.60;;;18.50;68.70;;;;;;5036382;28;20029;-60
2022/04/26 11:11:53;;;;;;;4.47;3.30;;;18.40;69.20;;;;;;5036642;28;20105;-60
2022/04/26 11:14:20;;;;;;;6.88;5.18;;;18.40;69.10;;;;;;5038488;28;20032;-60
2022/04/26 11:16:56;;;;;;;7.07;3.75;;;18.40;69.90;;;;;;5046563;28;20050;-59
2022/04/26 11:19:32;;;;;;;6.45;3.75;;;18.30;69.90;;;;;;5037697;28;20519;-59
2022/04/26 11:22:08;;;;;;;6.10;4.40;;;18.20;70.30;;;;;;5037312;28;20049;-59
2022/04/26 11:30:06;;;;;;;5.97;3.80;;;17.90;70.90;;;;;;5045224;28;20068;-60
2022/04/26 11:32:44;;;;;;;5.93;3.45;;;17.90;71.10;;;;;;5037626;28;20546;-59
2022/04/26 11:35:10;;;;;;;4.68;3.30;;;17.90;71.20;;;;;;5028598;28;20036;-59
2022/04/26 11:37:47;;;;;;;3.88;2.75;;;17.80;70.90;;;;;;5044727;28;20093;-60
2022/04/26 11:40:25;;;;;;;5.35;3.58;;;17.80;70.90;;;;;;5042029;28;20059;-59
2022/04/26 11:42:50;;;;;;;4.70;3.42;;;17.70;70.90;;;;;;5040154;28;20059;-60
2022/04/26 11:45:17;;;;;;;4.82;3.25;;;17.70;71.00;;;;;;5043555;28;20115;-60
2022/04/26 11:47:50;;;;;;;4.75;3.20;;;17.80;70.90;;;;;;5052397;28;20033;-59
2022/04/26 11:50:21;;;;;;;8.18;3.85;;;17.80;71.60;;;;;;5041213;28;20086;-60
2022/04/26 11:52:48;;;;;;;5.90;2.80;;;17.90;70.60;;;;;;5047307;28;20671;-59
2022/04/26 11:55:26;;;;;;;4.18;2.22;;;17.90;70.20;;;;;;5045714;28;20051;-59
2022/04/26 11:57:52;;;;;;;3.88;2.53;;;18.00;69.70;;;;;;5042323;28;20396;-60
2022/04/26 12:00:21;;;;;;;4.22;2.72;;;18.10;69.50;;;;;;5042378;28;20032;-59
2022/04/26 12:02:48;;;;;;;4.88;2.47;;;18.20;69.10;;;;;;5047163;28;20028;-59
2022/04/26 12:05:19;;;;;;;3.63;2.75;;;18.30;68.80;;;;;;5041214;28;20040;-59
2022/04/26 12:07:45;;;;;;;4.80;2.80;;;18.30;68.80;;;;;;5044477;28;20047;-59
2022/04/26 12:10:32;;;;;;;4.45;2.72;;;18.40;68.60;;;;;;5044206;28;20401;-59
2022/04/26 12:13:02;;;;;;;6.03;3.10;;;18.40;68.60;;;;;;5026181;28;20866;-59
2022/04/26 12:15:30;;;;;;;3.47;2.65;;;18.50;68.80;;;;;;5035602;28;20028;-60
2022/04/26 12:18:13;;;;;;;7.50;2.85;;;18.50;68.70;;;;;;5036325;28;20029;-60
2022/04/26 12:20:59;;;;;;;5.45;2.85;;;18.60;68.60;;;;;;5029396;28;20048;-59
2022/04/26 12:23:26;;;;;;;3.45;2.58;;;18.60;68.20;;;;;;5044385;28;20036;-60
2022/04/26 12:26:05;;;;;;;4.32;2.80;;;18.60;68.20;;;;;;5045660;28;20105;-60
2022/04/26 12:28:31;;;;;;;3.15;2.83;;;18.60;68.10;;;;;;5041144;28;20086;-59
2022/04/26 12:30:57;;;;;;;5.72;2.90;;;18.60;68.20;;;;;;5037743;28;20032;-59
2022/04/26 12:33:34;;;;;;;5.38;2.70;;;18.60;68.30;;;;;;5033195;28;20490;-59
2022/04/26 12:36:05;;;;;;;3.53;2.53;;;18.60;68.40;;;;;;5030987;28;20141;-59
2022/04/26 12:38:44;;;;;;;4.78;2.60;;;18.50;68.30;;;;;;5039846;28;20037;-58
2022/04/26 12:41:10;;;;;;;5.95;2.30;;;18.40;68.50;;;;;;5043694;28;20028;-61
2022/04/26 12:43:36;;;;;;;3.53;2.28;;;18.30;68.30;;;;;;5046598;28;20554;-60
2022/04/26 12:46:04;;;;;;;3.75;2.28;;;18.30;68.00;;;;;;5041109;28;20032;-61
2022/04/26 12:51:27;;;;;;;5.88;3.20;;;18.30;67.80;;;;;;5032975;28;20110;-60
2022/04/26 12:54:05;;;;;;;5.68;3.15;;;18.40;67.70;;;;;;5036733;28;20040;-59
2022/04/26 12:56:30;;;;;;;5.43;2.90;;;18.40;67.60;;;;;;5040127;28;20013;-60
2022/04/26 12:58:56;;;;;;;3.58;2.60;;;18.50;67.60;;;;;;5036462;28;20052;-60
2022/04/26 13:01:22;;;;;;;5.70;2.80;;;18.50;67.50;;;;;;5016271;28;20024;-60
2022/04/26 13:03:48;;;;;;;3.63;2.72;;;18.60;67.40;;;;;;5036559;28;20396;-60
2022/04/26 13:06:18;;;;;;;3.65;2.60;;;18.60;67.20;;;;;;5032630;28;20052;-60
2022/04/26 13:08:48;;;;;;;5.20;2.75;;;18.70;67.20;;;;;;5032753;28;20144;-59
2022/04/26 13:11:17;;;;;;;5.20;2.40;;;18.70;67.00;;;;;;5035916;28;20056;-59
2022/04/26 13:13:46;;;;;;;4.38;2.70;;;18.70;66.70;;;;;;5030006;28;20110;-60
2022/04/26 13:16:12;;;;;;;3.50;2.30;;;18.60;66.60;;;;;;5038905;28;20173;-59
2022/04/26 13:18:38;;;;;;;7.35;2.72;;;18.70;66.40;;;;;;5034455;28;20027;-60
2022/04/26 13:21:05;;;;;;;3.05;2.17;;;18.70;66.40;;;;;;5032018;28;20052;-61
2022/04/26 13:23:34;;;;;;;3.42;2.90;;;18.60;66.60;;;;;;5028568;28;20154;-60
2022/04/26 13:26:00;;;;;;;3.30;2.40;;;18.60;66.70;;;;;;5026198;28;20148;-60
2022/04/26 13:28:26;;;;;;;6.95;3.00;;;18.60;67.00;;;;;;5036117;28;20036;-60
2022/04/26 13:30:52;;;;;;;5.05;2.63;;;18.60;67.00;;;;;;5036805;28;20036;-61
2022/04/26 13:33:18;;;;;;;4.93;2.40;;;18.50;67.30;;;;;;5027751;28;20036;-60
2022/04/26 13:35:44;;;;;;;2.10;1.92;;;18.40;68.20;;;;;;5025824;28;20033;-61
2022/04/26 13:38:12;;;;;;;2.20;2.00;;;18.30;68.90;;;;;;5037895;28;20125;-61
2022/04/26 13:40:39;;;;;;;2.28;2.00;;;18.20;69.80;;;;;;5036959;28;20036;-60
2022/04/26 13:43:06;;;;;;;2.33;2.10;;;18.10;70.50;;;;;;5044491;28;20522;-61
2022/04/26 13:45:32;;;;;;;2.72;2.30;;;18.10;71.30;;;;;;5042997;28;20032;-61
2022/04/26 13:48:08;;;;;;;7.05;4.15;;;18.00;71.70;;;;;;5039281;28;20056;-61
2022/04/26 13:50:34;;;;;;;4.68;3.35;;;18.00;72.20;;;;;;5040996;28;20039;-61
2022/04/26 13:52:59;;;;;;;3.88;2.75;;;18.00;72.50;;;;;;5049265;28;20033;-61
2022/04/26 13:55:26;;;;;;;3.83;2.80;;;17.90;72.70;;;;;;5044184;28;20500;-60
2022/04/26 13:57:54;;;;;;;3.67;2.10;;;17.90;72.80;;;;;;5043363;28;20025;-60
2022/04/26 14:00:20;;;;;;;2.05;1.90;;;17.90;72.90;;;;;;5044386;28;20608;-61
2022/04/26 14:02:46;;;;;;;2.70;1.90;;;17.90;73.20;;;;;;5044046;28;20040;-60
2022/04/26 14:05:13;;;;;;;1.98;1.85;;;17.80;73.40;;;;;;5047989;28;20044;-61
2022/04/26 14:07:40;;;;;;;2.17;1.95;;;17.80;73.70;;;;;;5046665;28;20041;-61
2022/04/26 14:10:06;;;;;;;2.88;1.95;;;17.80;73.80;;;;;;5042245;28;20048;-60
2022/04/26 14:12:33;;;;;;;1.85;1.75;;;17.80;73.80;;;;;;5042760;28;20420;-60
2022/04/26 14:23:11;;;;;;;1.73;1.63;;;17.90;73.70;;;;;;5047037;28;20040;-60
2022/04/26 14:25:38;;;;;;;2.65;1.90;;;17.90;73.40;;;;;;5050485;28;20033;-60
2022/04/26 14:28:04;;;;;;;1.70;1.60;;;17.90;73.30;;;;;;5047147;28;20751;-60
2022/04/26 14:30:30;;;;;;;1.60;1.50;;;17.90;73.20;;;;;;5043913;28;20709;-61
2022/04/26 14:32:56;;;;;;;1.50;1.40;;;17.90;73.00;;;;;;5042622;28;20036;-60
2022/04/26 14:35:21;;;;;;;1.17;1.00;;;17.90;72.80;;;;;;5050076;28;20029;-60
2022/04/26 14:37:48;;;;;;;1.25;1.17;;;17.80;72.60;;;;;;5041865;28;20036;-60
2022/04/26 14:40:14;;;;;;;1.48;1.38;;;17.80;72.60;;;;;;5055192;28;20020;-61
2022/04/26 14:42:45;;;;;;;1.58;1.48;;;17.70;72.60;;;;;;5046603;28;20029;-60
2022/04/26 14:45:11;;;;;;;1.43;1.33;;;17.60;72.70;;;;;;5055064;28;20060;-61
2022/04/26 14:47:36;;;;;;;1.40;1.30;;;17.60;72.70;;;;;;5055783;28;20055;-61
2022/04/26 14:50:04;;;;;;;1.30;1.20;;;17.50;72.70;;;;;;5051992;28;20033;-61
2022/04/26 14:52:30;;;;;;;1.15;1.13;;;17.40;72.50;;;;;;5047533;28;20036;-61
2022/04/26 14:54:57;;;;;;;1.30;1.17;;;17.40;72.30;;;;;;5051286;28;20059;-61
2022/04/26 14:57:23;;;;;;;1.23;1.20;;;17.40;72.30;;;;;;5051564;28;20032;-61
2022/04/26 14:59:49;;;;;;;1.52;1.40;;;17.30;72.30;;;;;;5051138;28;20072;-61
2022/04/26 15:02:17;;;;;;;1.20;1.20;;;17.30;72.50;;;;;;5040586;28;20032;-60
2022/04/26 15:04:44;;;;;;;1.00;1.00;;;17.30;72.70;;;;;;5051642;28;20678;-60
2022/04/26 15:07:10;;;;;;;1.00;1.00;;;17.30;72.90;;;;;;5049818;28;20134;-60
2022/04/26 15:09:45;;;;;;;2.05;1.30;;;17.30;72.90;;;;;;5049237;28;20449;-61
2022/04/26 15:17:42;;;;;;;1.10;1.10;;;17.40;72.60;;;;;;5054861;28;20040;-60
2022/04/26 15:20:09;;;;;;;1.13;1.02;;;17.30;72.50;;;;;;5057047;28;20068;-60
2022/04/26 15:22:37;;;;;;;0.90;0.90;;;17.30;72.40;;;;;;5053323;28;20119;-59
2022/04/26 15:25:05;;;;;;;2.10;0.80;;;17.20;72.30;;;;;;5050437;28;20020;-60
2022/04/26 15:27:31;;;;;;;1.75;1.08;;;17.20;72.20;;;;;;5057753;28;21823;-60
2022/04/26 15:29:56;;;;;;;0.80;0.80;;;17.20;72.20;;;;;;5058887;28;20043;-59
2022/04/26 15:32:23;;;;;;;0.90;0.88;;;17.10;72.00;;;;;;5060195;28;20020;-60
2022/04/26 15:34:49;;;;;;;0.75;0.75;;;17.00;71.90;;;;;;5050283;28;20036;-59
2022/04/26 15:37:15;;;;;;;0.70;0.70;;;16.90;71.70;;;;;;5057851;28;20036;-60
2022/04/26 15:39:42;;;;;;;0.95;0.88;;;16.90;71.80;;;;;;5058057;28;20500;-60
2022/04/26 15:42:08;;;;;;;0.80;0.80;;;16.80;71.80;;;;;;5060730;28;20029;-60
2022/04/26 15:44:34;;;;;;;0.90;0.90;;;16.80;71.90;;;;;;5060655;28;20043;-60
2022/04/26 15:47:00;;;;;;;1.20;1.10;;;16.80;71.80;;;;;;5056169;28;23148;-60
2022/04/26 15:49:26;;;;;;;1.13;1.00;;;16.80;71.70;;;;;;5057118;28;20035;-60
2022/04/26 15:51:54;;;;;;;1.27;1.20;;;16.80;71.70;;;;;;5056101;28;20028;-60
2022/04/26 15:54:19;;;;;;;1.17;1.08;;;16.80;71.70;;;;;;5061013;28;21064;-60
2022/04/26 15:56:46;;;;;;;1.20;1.10;;;16.80;71.60;;;;;;5059864;28;20033;-60
2022/04/26 15:59:12;;;;;;;1.00;1.00;;;16.80;71.50;;;;;;5054148;28;20040;-59
2022/04/26 16:01:42;;;;;;;1.48;1.30;;;16.80;71.50;;;;;;5065361;28;20025;-60
2022/04/26 16:04:09;;;;;;;1.23;1.10;;;16.80;71.50;;;;;;5066484;28;20082;-60
2022/04/26 16:06:37;;;;;;;1.17;1.17;;;16.80;71.40;;;;;;5060776;28;20045;-60
2022/04/26 16:23:05;;;;;;;1.58;1.48;;;17.00;71.60;;;;;;4984260;28;20030;-60
2022/04/26 16:25:32;;;;;;;1.65;1.55;;;16.90;71.80;;;;;;5054210;28;20528;-60
2022/04/26 16:28:00;;;;;;;2.17;1.70;;;17.00;71.70;;;;;;5064746;28;20036;-60
2022/04/26 16:30:27;;;;;;;2.63;2.10;;;17.00;71.60;;;;;;5071384;28;20025;-59
2022/04/26 16:32:53;;;;;;;3.10;2.28;;;17.00;71.60;;;;;;5065544;28;20389;-60
2022/04/26 16:35:18;;;;;;;2.45;2.25;;;17.00;71.70;;;;;;5071016;28;20035;-60
2022/04/26 16:37:44;;;;;;;3.10;2.40;;;17.00;71.80;;;;;;5069586;28;20029;-60
2022/04/26 16:40:11;;;;;;;2.38;1.90;;;17.00;71.90;;;;;;5060459;28;20017;-60
2022/04/26 16:42:39;;;;;;;2.42;2.20;;;17.00;71.80;;;;;;5068823;28;20082;-61
2022/04/26 16:45:05;;;;;;;1.95;1.85;;;17.00;71.70;;;;;;5068106;28;20063;-60
2022/04/26 16:47:31;;;;;;;1.90;1.80;;;17.10;71.80;;;;;;5063519;28;20044;-60
2022/04/26 16:49:57;;;;;;;2.17;2.00;;;17.00;71.90;;;;;;5066451;28;20419;-60
2022/04/26 16:52:22;;;;;;;3.97;2.50;;;17.00;71.80;;;;;;5058473;28;20031;-60
2022/04/26 16:54:49;;;;;;;2.80;2.50;;;17.00;71.80;;;;;;5071511;28;20036;-60
2022/04/26 16:57:16;;;;;;;2.83;2.40;;;17.00;71.60;;;;;;5047134;28;20016;-60
2022/04/26 16:59:41;;;;;;;4.10;2.83;;;17.00;71.60;;;;;;5070939;28;20025;-60
2022/04/26 17:02:07;;;;;;;2.78;2.55;;;17.00;71.60;;;;;;5060879;28;20012;-60
2022/04/26 17:04:33;;;;;;;2.85;2.63;;;17.00;71.30;;;;;;5071923;28;20044;-60
2022/04/26 17:07:00;;;;;;;3.20;2.90;;;17.00;71.00;;;;;;5067371;28;20024;-60
2022/04/26 17:09:26;;;;;;;3.03;2.55;;;17.00;70.70;;;;;;5062116;28;20032;-60
2022/04/26 17:11:52;;;;;;;3.20;2.90;;;16.90;70.30;;;;;;5069099;28;20480;-60
2022/04/26 17:14:19;;;;;;;3.25;2.95;;;16.90;70.10;;;;;;5070024;28;20031;-60
2022/04/26 17:16:47;;;;;;;2.95;2.65;;;16.90;69.90;;;;;;5060174;28;20112;-60
2022/04/26 17:19:13;;;;;;;2.75;2.42;;;16.90;69.80;;;;;;5065828;28;20037;-60